Westmoreland, Virginia
Current Conditions -  °F | °C
As of 9:53 AM on Wednesday 22 Oct 2014 (Local Time) from KNUI Reporting Station
Light Rain Light Rain  
Wind Chill: 13°   Ceiling: 2300
Heat Index: 13°   Visibility: 6mi
Dew Point: 11°   Wind: 7mph
Humidity: 86%   Direction: NA
Pressure: 29.85"   Gusts: NA
Location:  38.06°N, 76.55°W
Report Text: KNUI 221353Z AUTO VRB06KT 6SM -RA BR FEW012 BKN023 OVC034 13/11 A2985 RMK AO2 SLP108 P0002 T01280106
Loading
Personal Weather Stations






























Interactive Weather Map
Tropical Storm Tracking
New forecast layout! Learn more

10-Day Weather Forecast

Advertisements
Track Severe Weather on mobile